Air Navigation Services of Czech Republic
Airport: LKPR Updated:  23.09.2018 23:13:06  UTC
 SPECI LKPR 23.09. 23:09 ...
SPECI LKPR 232309Z 31020KT 9999 BKN025 08/05 Q1014 RMK REG QNH 0997=
 TAF LKPR 23.09. 23:00 ...
TAF LKPR 232300Z 2400/2506 30016KT 9999 BKN035      TEMPO 2400/2419 31018G32KT 9000 -SHRA SCT020TCU=